Time;durP1;ratioP1;P1;durP2;ratioP2;P2;SDS_P1;SDS_P2;PMS_P1;PMS_P2;Temp;Humidity;BMP_temperature;BMP_pressure;BME280_temperature;BME280_humidity;BME280_pressure;Samples;Min_cycle;Max_cycle;Signal;HPM_P1;HPM_P2
2022/04/29 00:00:51;;;;;;;12.43;9.75;;;;;;;9.11;65.88;101590.97;5070659;28;20075;-58
2022/04/29 00:03:18;;;;;;;12.87;9.83;;;;;;;9.07;65.79;101596.25;5071262;28;20528;-56
2022/04/29 00:05:47;;;;;;;12.23;9.05;;;;;;;9.05;66.09;101603.19;5072077;28;20474;-56
2022/04/29 00:08:16;;;;;;;16.42;10.23;;;;;;;9.05;65.95;101600.41;5071382;28;20052;-57
2022/04/29 00:10:44;;;;;;;13.38;10.43;;;;;;;9.01;65.86;101596.50;5071601;28;20424;-56
2022/04/29 00:13:14;;;;;;;12.43;9.63;;;;;;;9.03;66.41;101594.28;5067341;28;20044;-57
2022/04/29 00:15:44;;;;;;;13.73;9.70;;;;;;;9.02;66.38;101593.47;5050834;28;20053;-57
2022/04/29 00:18:12;;;;;;;10.32;8.68;;;;;;;9.02;66.25;101592.63;5067343;28;20051;-56
2022/04/29 00:20:39;;;;;;;11.77;9.35;;;;;;;8.99;66.03;101587.59;5071437;28;20056;-57
2022/04/29 00:23:07;;;;;;;15.88;9.27;;;;;;;8.93;66.57;101584.84;5071976;28;20055;-55
2022/04/29 00:25:36;;;;;;;14.05;9.60;;;;;;;8.88;66.70;101586.75;5099669;28;20055;-57
2022/04/29 00:28:04;;;;;;;11.10;9.27;;;;;;;8.85;66.13;101587.34;5091878;28;20063;-56
2022/04/29 00:30:32;;;;;;;12.60;9.10;;;;;;;8.83;66.58;101584.00;5091067;28;20059;-52
2022/04/29 00:32:59;;;;;;;15.10;11.15;;;;;;;8.80;66.92;101590.09;5089831;28;20051;-55
2022/04/29 00:35:28;;;;;;;14.40;10.05;;;;;;;8.76;67.41;101592.59;5090886;28;20386;-56
2022/04/29 00:37:57;;;;;;;15.65;11.18;;;;;;;8.71;67.01;101596.22;5083798;28;20063;-56
2022/04/29 00:40:26;;;;;;;;;;;;;;;8.68;67.46;101590.34;5083991;28;20155;-53
2022/04/29 00:42:55;;;;;;;14.18;9.98;;;;;;;8.67;66.96;101592.31;5091660;28;19927;-56
2022/04/29 00:45:24;;;;;;;13.88;9.95;;;;;;;8.69;67.61;101597.56;5084412;28;20044;-57
2022/04/29 00:47:52;;;;;;;16.23;10.73;;;;;;;8.66;67.18;101598.94;5085429;28;20508;-56
2022/04/29 00:50:23;;;;;;;14.25;10.23;;;;;;;8.68;67.10;101601.47;5091415;28;20493;-56
2022/04/29 00:52:52;;;;;;;14.40;10.40;;;;;;;8.66;67.35;101601.72;5091848;28;20048;-57
2022/04/29 00:55:21;;;;;;;15.82;11.57;;;;;;;8.65;67.36;101594.53;5087752;28;20653;-56
2022/04/29 00:57:51;;;;;;;14.88;10.75;;;;;;;8.64;67.01;101584.50;5086935;28;20048;-57
2022/04/29 01:00:22;;;;;;;14.00;11.23;;;;;;;8.64;66.93;101589.22;5088202;28;20059;-56
2022/04/29 01:02:54;;;;;;;15.68;11.02;;;;;;;8.62;67.74;101583.13;5090542;28;20040;-54
2022/04/29 01:05:23;;;;;;;13.10;10.57;;;;;;;8.59;66.99;101584.50;5090409;28;20055;-57
2022/04/29 01:07:52;;;;;;;17.87;11.57;;;;;;;8.55;67.56;101580.59;5091630;28;20048;-57
2022/04/29 01:10:21;;;;;;;14.55;11.60;;;;;;;8.53;68.16;101580.03;5088328;28;20040;-54
2022/04/29 01:12:55;;;;;;;14.00;10.95;;;;;;;8.53;67.77;101580.88;5095584;28;20059;-55
2022/04/29 01:15:24;;;;;;;15.63;11.63;;;;;;;8.52;67.70;101573.66;5090492;28;20063;-56
2022/04/29 01:17:54;;;;;;;16.93;11.93;;;;;;;8.50;67.87;101575.03;5097139;28;20052;-57
2022/04/29 01:20:25;;;;;;;19.70;12.80;;;;;;;8.43;68.01;101564.19;5086623;28;20058;-57
2022/04/29 01:22:55;;;;;;;16.60;11.95;;;;;;;8.37;68.41;101550.53;5095242;28;20404;-56
2022/04/29 01:25:24;;;;;;;15.35;12.13;;;;;;;8.31;68.06;101555.22;5095945;28;20044;-56
2022/04/29 01:27:52;;;;;;;17.20;12.10;;;;;;;8.25;68.45;101553.53;5095363;28;20052;-57
2022/04/29 01:30:20;;;;;;;19.02;12.38;;;;;;;8.23;69.22;101558.53;5095500;28;20150;-55
2022/04/29 01:32:47;;;;;;;19.85;12.65;;;;;;;8.22;68.53;101548.53;5094212;28;20052;-57
2022/04/29 01:35:15;;;;;;;18.15;11.52;;;;;;;8.23;69.33;101558.53;5095078;28;20052;-56
2022/04/29 01:37:43;;;;;;;16.50;12.23;;;;;;;8.23;69.05;101553.81;5093718;28;20052;-55
2022/04/29 01:40:14;;;;;;;15.70;12.07;;;;;;;8.21;68.91;101556.03;5095362;28;20166;-57
2022/04/29 01:42:42;;;;;;;14.30;11.07;;;;;;;8.17;68.99;101552.13;5115559;28;20047;-57
2022/04/29 01:45:10;;;;;;;15.60;11.95;;;;;;;8.13;68.61;101553.78;5115776;28;20052;-57
2022/04/29 01:47:38;;;;;;;15.88;11.90;;;;;;;8.10;68.35;101555.13;5114757;28;20051;-57
2022/04/29 01:50:06;;;;;;;15.35;11.40;;;;;;;8.09;68.27;101547.94;5114986;28;20055;-55
2022/04/29 01:52:34;;;;;;;15.82;12.15;;;;;;;8.01;68.40;101542.91;5114834;27;20541;-56
2022/04/29 01:55:01;;;;;;;16.70;11.68;;;;;;;7.98;68.12;101537.06;5115554;28;20613;-56
2022/04/29 01:57:30;;;;;;;16.38;12.88;;;;;;;7.95;68.88;101546.75;5114553;28;20407;-57
2022/04/29 01:59:57;;;;;;;14.13;10.43;;;;;;;7.94;67.78;101539.56;5114627;28;20044;-55
2022/04/29 02:02:25;;;;;;;15.18;10.45;;;;;;;7.93;68.41;101537.88;5112968;28;20395;-56
2022/04/29 02:04:52;;;;;;;14.77;11.27;;;;;;;7.86;68.52;101543.66;5114574;28;20052;-57
2022/04/29 02:07:19;;;;;;;20.05;13.82;;;;;;;7.80;68.57;101543.91;5115076;28;20047;-56
2022/04/29 02:09:47;;;;;;;15.95;11.65;;;;;;;7.76;67.97;101543.63;5115484;28;20070;-53
2022/04/29 02:12:15;;;;;;;14.55;12.18;;;;;;;7.74;68.92;101543.03;5114305;28;20051;-54
2022/04/29 02:14:44;;;;;;;15.88;12.05;;;;;;;7.72;68.49;101536.94;5114572;28;20040;-56
2022/04/29 02:17:12;;;;;;;18.50;12.90;;;;;;;7.69;68.86;101543.03;5113780;28;20066;-57
2022/04/29 02:19:40;;;;;;;14.23;11.52;;;;;;;7.61;68.93;101536.03;5115008;28;20058;-55
2022/04/29 02:22:09;;;;;;;18.80;13.07;;;;;;;7.60;69.03;101539.94;5114099;28;20059;-57
2022/04/29 02:24:36;;;;;;;17.70;12.52;;;;;;;7.58;69.46;101532.97;5113646;28;20051;-56
2022/04/29 02:27:06;;;;;;;17.83;12.55;;;;;;;7.53;69.25;101536.53;5114166;28;20062;-55
2022/04/29 02:29:33;;;;;;;20.23;14.00;;;;;;;7.50;69.35;101528.78;5106059;28;20055;-56
2022/04/29 02:32:02;;;;;;;16.45;12.45;;;;;;;7.42;69.40;101521.78;5113817;28;20058;-55
2022/04/29 02:34:29;;;;;;;16.40;13.25;;;;;;;7.44;69.76;101524.31;5114656;28;20051;-55
2022/04/29 02:36:56;;;;;;;16.67;13.90;;;;;;;7.42;69.86;101521.78;5113671;28;20055;-56
2022/04/29 02:39:24;;;;;;;16.00;12.98;;;;;;;7.40;69.64;101523.16;5114516;28;20051;-57
2022/04/29 02:41:51;;;;;;;18.02;13.32;;;;;;;7.39;69.65;101521.47;5114074;28;20056;-56
2022/04/29 02:44:18;;;;;;;20.25;13.63;;;;;;;7.37;69.17;101520.91;5114171;28;20048;-56
2022/04/29 02:49:28;;;;;;;15.27;12.65;;;;;;;7.32;69.53;101516.19;5113186;28;20055;-56
2022/04/29 02:51:56;;;;;;;18.25;13.88;;;;;;;7.30;69.95;101521.97;5113778;28;20063;-55
2022/04/29 02:54:23;;;;;;;19.85;15.93;;;;;;;7.27;69.79;101522.53;5114653;28;20048;-56
2022/04/29 02:56:51;;;;;;;18.30;14.23;;;;;;;7.26;70.53;101514.47;5113724;28;20111;-56
2022/04/29 02:59:18;;;;;;;16.23;13.85;;;;;;;7.24;70.04;101523.03;5113334;27;20052;-56
2022/04/29 03:01:46;;;;;;;19.65;14.23;;;;;;;7.22;70.22;101519.69;5113383;28;20052;-57
2022/04/29 03:04:14;;;;;;;17.05;13.38;;;;;;;7.21;70.22;101515.28;5113243;28;20502;-52
2022/04/29 03:06:43;;;;;;;17.27;13.25;;;;;;;7.24;70.02;101508.34;5113686;28;20051;-54
2022/04/29 03:09:11;;;;;;;16.87;12.57;;;;;;;7.26;69.84;101517.25;5113328;28;20051;-55
2022/04/29 03:11:39;;;;;;;16.27;13.57;;;;;;;7.26;69.70;101511.69;5113824;28;20822;-56
2022/04/29 03:14:06;;;;;;;19.88;12.98;;;;;;;7.23;70.07;101515.03;5113306;28;20055;-57
2022/04/29 03:16:34;;;;;;;17.90;13.15;;;;;;;7.23;69.12;101515.84;5113831;28;20416;-57
2022/04/29 03:19:01;;;;;;;19.02;13.95;;;;;;;7.21;69.59;101511.69;5113368;28;20051;-57
2022/04/29 03:21:29;;;;;;;19.27;13.95;;;;;;;7.15;69.36;101510.78;5114085;28;20479;-56
2022/04/29 03:23:57;;;;;;;19.00;14.05;;;;;;;7.16;69.99;101511.63;5092108;28;20051;-57
2022/04/29 03:26:25;;;;;;;16.98;13.68;;;;;;;7.16;70.26;101511.63;5093348;28;20397;-55
2022/04/29 03:28:52;;;;;;;19.02;15.07;;;;;;;7.15;70.29;101505.25;5086159;28;20399;-57
2022/04/29 03:31:19;;;;;;;18.85;15.15;;;;;;;7.12;70.00;101516.88;5072890;28;20053;-56
2022/04/29 03:33:47;;;;;;;19.55;15.15;;;;;;;7.10;69.60;101508.84;5073100;28;20052;-55
2022/04/29 03:36:15;;;;;;;20.48;15.35;;;;;;;7.10;69.72;101510.78;5077402;28;20064;-56
2022/04/29 03:38:42;;;;;;;21.67;15.52;;;;;;;7.12;70.36;101505.81;5072549;28;20408;-57
2022/04/29 03:41:12;;;;;;;17.95;14.02;;;;;;;7.13;70.11;101506.63;5064032;28;20048;-55
2022/04/29 03:43:39;;;;;;;22.25;15.57;;;;;;;7.11;70.56;101506.88;5071525;28;20071;-55
2022/04/29 03:46:07;;;;;;;20.20;16.02;;;;;;;7.11;70.83;101510.47;5067807;28;20067;-54
2022/04/29 03:51:15;;;;;;;20.42;15.73;;;;;;;7.16;70.39;101506.09;5071882;28;20052;-54
2022/04/29 03:53:42;;;;;;;22.90;16.00;;;;;;;7.18;70.47;101510.28;5076667;28;20044;-54
2022/04/29 03:56:11;;;;;;;19.63;15.45;;;;;;;7.18;70.38;101510.28;5079263;28;20052;-56
2022/04/29 03:58:38;;;;;;;21.92;15.68;;;;;;;7.18;70.81;101513.06;5071898;28;20052;-56
2022/04/29 04:01:06;;;;;;;20.77;15.90;;;;;;;7.18;70.45;101513.06;5073761;28;20055;-57
2022/04/29 04:03:33;;;;;;;18.55;15.13;;;;;;;7.15;70.93;101518.28;5075390;28;20059;-52
2022/04/29 04:08:46;;;;;;;22.92;17.02;;;;;;;7.15;70.77;101521.06;5096057;28;20051;-57
2022/04/29 04:11:14;;;;;;;21.75;17.88;;;;;;;7.16;70.67;101520.78;5086644;28;20381;-57
2022/04/29 04:13:44;;;;;;;20.83;16.73;;;;;;;7.16;70.45;101512.47;5083749;28;20409;-57
2022/04/29 04:16:11;;;;;;;24.55;19.88;;;;;;;7.16;70.97;101509.72;5071051;28;20048;-54
2022/04/29 04:18:39;;;;;;;18.95;16.00;;;;;;;7.17;70.69;101516.09;5072831;28;20056;-55
2022/04/29 04:21:06;;;;;;;20.17;16.42;;;;;;;7.18;70.85;101518.59;5077078;28;20048;-56
2022/04/29 04:23:34;;;;;;;20.67;15.40;;;;;;;7.18;71.19;101515.81;5091772;28;20059;-56
2022/04/29 04:26:01;;;;;;;22.88;17.85;;;;;;;7.20;71.32;101524.72;5075860;28;20504;-54
2022/04/29 04:28:30;;;;;;;20.35;16.30;;;;;;;7.22;70.90;101524.41;5074046;28;20496;-55
2022/04/29 04:30:58;;;;;;;20.20;16.63;;;;;;;7.25;71.03;101524.72;5071208;28;20044;-52
2022/04/29 04:33:25;;;;;;;22.90;16.85;;;;;;;7.27;71.26;101516.97;5068847;28;20056;-52
2022/04/29 04:35:52;;;;;;;20.60;16.15;;;;;;;7.27;71.15;101516.97;5072214;28;20048;-57
2022/04/29 04:38:20;;;;;;;19.40;16.20;;;;;;;7.34;70.42;101515.91;5075948;28;20055;-54
2022/04/29 04:40:47;;;;;;;18.38;15.30;;;;;;;7.41;70.53;101524.81;5071600;28;20501;-57
2022/04/29 04:43:14;;;;;;;19.20;16.80;;;;;;;7.44;70.49;101519.59;5081230;28;20059;-54
2022/04/29 04:45:44;;;;;;;25.45;17.52;;;;;;;7.52;70.37;101523.81;5088551;28;20377;-56
2022/04/29 04:48:11;;;;;;;18.77;15.85;;;;;;;7.60;69.95;101517.75;5083668;28;20052;-58
2022/04/29 04:50:39;;;;;;;20.88;16.25;;;;;;;7.64;69.81;101521.66;5071424;28;20385;-56
2022/04/29 04:53:06;;;;;;;18.27;15.95;;;;;;;7.71;69.76;101524.19;5069532;28;20055;-55
2022/04/29 04:55:34;;;;;;;24.13;17.13;;;;;;;7.79;70.08;101525.59;5070956;28;20052;-56
2022/04/29 04:58:01;;;;;;;23.73;16.75;;;;;;;7.85;69.94;101522.59;5070820;28;20049;-57
2022/04/29 05:00:28;;;;;;;20.88;17.35;;;;;;;7.93;69.68;101526.78;5071209;28;20060;-54
2022/04/29 05:02:57;;;;;;;20.08;16.33;;;;;;;8.04;69.47;101516.53;5077499;28;20055;-57
2022/04/29 05:05:25;;;;;;;20.35;16.30;;;;;;;8.13;69.71;101515.75;5072031;28;20051;-55
2022/04/29 05:07:52;;;;;;;17.65;15.73;;;;;;;8.22;69.89;101512.47;5074331;28;20424;-52
2022/04/29 05:10:20;;;;;;;18.88;15.80;;;;;;;8.33;69.19;101511.38;5074557;28;20397;-57
2022/04/29 05:12:48;;;;;;;20.88;16.80;;;;;;;8.43;69.21;101514.19;5079382;28;20056;-56
2022/04/29 05:15:15;;;;;;;20.50;16.20;;;;;;;8.54;69.77;101509.50;5072021;28;20056;-56
2022/04/29 05:17:43;;;;;;;19.75;16.15;;;;;;;8.66;68.55;101507.31;5071205;28;20418;-58
2022/04/29 05:20:15;;;;;;;18.75;16.73;;;;;;;8.80;69.00;101506.75;5071645;28;20049;-56
2022/04/29 05:22:43;;;;;;;19.17;15.55;;;;;;;8.93;69.10;101507.03;5066279;28;20053;-57
2022/04/29 05:25:10;;;;;;;19.70;15.48;;;;;;;9.05;68.25;101515.09;5070441;28;20049;-57
2022/04/29 05:27:38;;;;;;;17.15;14.13;;;;;;;9.21;67.49;101513.13;5065756;28;20056;-57
2022/04/29 05:30:06;;;;;;;17.83;13.85;;;;;;;9.30;67.00;101513.38;5071159;28;20055;-58
2022/04/29 05:32:34;;;;;;;16.20;13.30;;;;;;;9.42;66.86;101507.53;5072263;28;20045;-57
2022/04/29 05:35:02;;;;;;;17.95;14.23;;;;;;;9.53;66.00;101507.25;5069080;28;20056;-54
2022/04/29 05:37:31;;;;;;;16.17;13.90;;;;;;;9.66;65.84;101508.59;5070945;28;20064;-56
2022/04/29 05:42:46;;;;;;;16.42;13.00;;;;;;;9.90;65.19;101500.44;5071655;28;20064;-53
2022/04/29 05:45:14;;;;;;;15.38;12.73;;;;;;;10.02;65.30;101500.13;5070816;28;20048;-58
2022/04/29 05:47:41;;;;;;;14.63;12.98;;;;;;;10.12;65.14;101505.63;5069577;28;20060;-53
2022/04/29 05:50:09;;;;;;;16.92;13.82;;;;;;;10.21;64.47;101502.25;5070760;28;20056;-56
2022/04/29 05:52:38;;;;;;;14.10;12.05;;;;;;;10.29;64.29;101508.09;5075696;28;20413;-57
2022/04/29 05:55:06;;;;;;;13.40;11.67;;;;;;;10.33;63.97;101502.75;5060818;28;20072;-52
2022/04/29 05:57:33;;;;;;;17.33;12.90;;;;;;;10.41;63.94;101504.94;5068148;28;20074;-54
2022/04/29 06:00:01;;;;;;;16.58;12.05;;;;;;;10.46;63.60;101499.34;5072243;28;20060;-55
2022/04/29 06:02:28;;;;;;;17.00;11.88;;;;;;;10.57;63.37;101498.16;5077757;28;20044;-55
2022/04/29 06:04:55;;;;;;;18.30;12.13;;;;;;;10.64;63.22;101499.78;5085355;28;20063;-55
2022/04/29 06:07:23;;;;;;;13.68;9.98;;;;;;;10.72;63.19;101501.94;5074227;28;20067;-58
2022/04/29 06:09:51;;;;;;;14.40;9.93;;;;;;;10.79;63.29;101496.03;5073327;28;20056;-58
2022/04/29 06:12:19;;;;;;;13.93;10.10;;;;;;;10.85;62.35;101494.88;5074768;28;20059;-53
2022/04/29 06:14:46;;;;;;;14.75;10.90;;;;;;;10.93;62.10;101502.63;5072407;28;20048;-57
2022/04/29 06:17:14;;;;;;;13.30;9.65;;;;;;;11.00;61.80;101502.28;5073769;28;20075;-54
2022/04/29 06:19:42;;;;;;;13.60;9.80;;;;;;;11.07;61.83;101511.16;5074373;28;20071;-56
2022/04/29 06:22:09;;;;;;;15.43;10.40;;;;;;;11.07;61.39;101511.16;5076678;28;20057;-55
2022/04/29 06:24:37;;;;;;;13.20;9.73;;;;;;;11.12;61.50;101502.72;5075661;28;20052;-54
2022/04/29 06:27:09;;;;;;;16.27;11.10;;;;;;;11.21;61.46;101503.75;5080247;28;20044;-54
2022/04/29 06:29:36;;;;;;;11.52;9.55;;;;;;;11.26;61.31;101500.94;5073671;28;20055;-58
2022/04/29 06:32:04;;;;;;;17.15;11.23;;;;;;;11.37;60.78;101496.91;5073492;28;20053;-55
2022/04/29 06:34:31;;;;;;;16.13;10.30;;;;;;;11.48;60.50;101497.63;5073587;28;20060;-56
2022/04/29 06:37:00;;;;;;;12.68;9.75;;;;;;;11.61;60.21;101512.00;5072550;28;20045;-57
2022/04/29 06:39:27;;;;;;;12.77;10.93;;;;;;;11.79;59.85;101514.03;5065135;28;20051;-54
2022/04/29 06:41:55;;;;;;;12.85;9.55;;;;;;;11.97;59.61;101509.69;5072006;28;20048;-51
2022/04/29 06:44:23;;;;;;;14.07;10.45;;;;;;;12.21;58.77;101497.63;5053621;28;20076;-50
2022/04/29 06:46:51;;;;;;;14.10;10.15;;;;;;;12.48;58.18;101506.19;5075786;28;20063;-50
2022/04/29 06:49:18;;;;;;;12.30;9.93;;;;;;;12.74;57.57;101502.97;5063033;28;20060;-53
2022/04/29 06:51:45;;;;;;;15.15;10.02;;;;;;;12.76;57.05;101509.09;5063284;28;20505;-52
2022/04/29 06:54:13;;;;;;;13.77;9.95;;;;;;;12.93;56.15;101514.97;5056853;28;20421;-52
2022/04/29 06:56:41;;;;;;;16.50;9.65;;;;;;;13.15;55.38;101503.13;5059938;28;20044;-50
2022/04/29 06:59:08;;;;;;;14.10;10.55;;;;;;;13.34;54.98;101514.31;5079281;28;20056;-53
2022/04/29 07:01:37;;;;;;;13.98;8.65;;;;;;;13.44;54.54;101510.50;5068434;28;20158;-55
2022/04/29 07:04:05;;;;;;;15.37;10.83;;;;;;;13.57;53.72;101515.28;5063290;28;20057;-55
2022/04/29 07:06:33;;;;;;;14.13;9.15;;;;;;;13.74;53.52;101502.66;5085759;28;20047;-53
2022/04/29 07:09:01;;;;;;;12.05;8.30;;;;;;;13.88;53.62;101511.88;5066397;28;20401;-52
2022/04/29 07:11:32;;;;;;;12.90;9.20;;;;;;;14.17;52.75;101508.75;5083073;28;20063;-53
2022/04/29 07:13:59;;;;;;;11.60;8.90;;;;;;;14.45;52.34;101513.44;5065228;28;20509;-54
2022/04/29 07:16:27;;;;;;;10.57;8.95;;;;;;;14.72;51.60;101509.75;5063103;28;20056;-54
2022/04/29 07:18:58;;;;;;;8.75;7.80;;;;;;;15.07;50.60;101512.84;5073464;28;20687;-52
2022/04/29 07:21:25;;;;;;;13.57;8.45;;;;;;;15.51;49.76;101505.50;5059425;28;20068;-54
2022/04/29 07:23:52;;;;;;;12.65;8.15;;;;;;;15.90;48.62;101507.53;5074675;28;20584;-55
2022/04/29 07:26:20;;;;;;;11.65;8.50;;;;;;;16.26;47.31;101519.69;5083794;28;20055;-53
2022/04/29 07:28:47;;;;;;;11.98;8.68;;;;;;;16.48;46.51;101510.31;5082117;28;20055;-53
2022/04/29 07:31:14;;;;;;;13.82;8.52;;;;;;;16.54;46.25;101498.56;5090044;28;20047;-57
2022/04/29 07:33:42;;;;;;;13.13;8.38;;;;;;;16.55;45.65;101494.59;5092495;28;20052;-51
2022/04/29 07:41:47;;;;;;;12.20;8.80;;;;;;;16.44;46.35;101488.47;5098814;28;20066;-52
2022/04/29 07:44:16;;;;;;;14.13;8.13;;;;;;;16.70;45.86;101490.47;5092007;28;20052;-54
2022/04/29 07:46:46;;;;;;;12.63;8.52;;;;;;;17.00;45.13;101482.19;5091462;28;20044;-54
2022/04/29 07:49:14;;;;;;;11.30;7.97;;;;;;;17.32;44.95;101483.59;5090999;28;20052;-53
2022/04/29 07:51:43;;;;;;;12.90;9.27;;;;;;;17.70;43.89;101482.81;5088953;28;20104;-55
2022/04/29 07:54:11;;;;;;;11.32;8.15;;;;;;;17.84;43.46;101488.25;5091355;28;20044;-56
2022/04/29 07:56:39;;;;;;;9.75;7.90;;;;;;;17.94;43.23;101476.59;5092085;28;20048;-52
2022/04/29 07:59:09;;;;;;;8.43;7.53;;;;;;;18.06;42.53;101475.88;5090863;28;20055;-54
2022/04/29 08:01:37;;;;;;;13.60;8.90;;;;;;;18.19;42.18;101482.41;5096107;28;20048;-53
2022/04/29 08:04:04;;;;;;;10.80;8.65;;;;;;;18.52;42.29;101484.47;5101397;28;20059;-56
2022/04/29 08:06:34;;;;;;;13.20;8.57;;;;;;;18.78;41.62;101493.59;5087693;28;20055;-55
2022/04/29 08:09:03;;;;;;;12.80;8.23;;;;;;;19.20;40.62;101478.59;5091289;28;20055;-57
2022/04/29 08:11:31;;;;;;;10.15;7.78;;;;;;;19.46;40.69;101483.94;5095101;28;20070;-56
2022/04/29 08:14:01;;;;;;;11.88;8.18;;;;;;;20.00;38.78;101474.47;5089836;28;20047;-57
2022/04/29 08:16:30;;;;;;;10.63;8.40;;;;;;;20.80;37.66;101479.38;5090328;28;20044;-56
2022/04/29 08:18:58;;;;;;;9.25;7.70;;;;;;;21.59;36.23;101481.59;5091227;28;20055;-52
2022/04/29 08:21:25;;;;;;;10.88;8.05;;;;;;;21.87;35.36;101474.97;5089849;28;20393;-56
2022/04/29 08:23:53;;;;;;;11.35;8.18;;;;;;;22.60;34.24;101464.94;5090988;28;20055;-54
2022/04/29 08:26:21;;;;;;;8.45;7.50;;;;;;;23.01;33.65;101471.06;5104488;28;20051;-55
2022/04/29 08:28:51;;;;;;;11.32;8.75;;;;;;;23.24;33.48;101451.22;5090327;28;20058;-57
2022/04/29 08:31:21;;;;;;;;;;;;;;;23.46;32.98;101449.59;5092335;28;20044;-51
2022/04/29 08:33:48;;;;;;;9.38;7.30;;;;;;;23.87;31.95;101461.28;5090652;28;19927;-57
2022/04/29 08:36:16;;;;;;;10.50;7.97;;;;;;;24.56;31.24;101468.81;5090539;28;20048;-55
2022/04/29 08:38:43;;;;;;;9.32;7.65;;;;;;;25.49;30.31;101480.50;5090239;28;20047;-55
2022/04/29 08:41:11;;;;;;;9.48;7.57;;;;;;;25.99;28.45;101474.44;5090069;28;20047;-55
2022/04/29 08:43:39;;;;;;;10.32;8.15;;;;;;;26.05;28.31;101453.69;5092059;28;20059;-56
2022/04/29 08:46:08;;;;;;;10.93;7.80;;;;;;;26.68;27.45;101439.38;5089845;28;20048;-55
2022/04/29 08:48:37;;;;;;;9.45;7.65;;;;;;;27.41;27.78;101444.88;5090818;28;20476;-56
2022/04/29 08:51:06;;;;;;;9.57;7.70;;;;;;;28.74;25.02;101451.25;5090599;28;20044;-56
2022/04/29 08:53:34;;;;;;;11.48;7.35;;;;;;;29.68;23.93;101447.81;5091267;28;20066;-56
2022/04/29 08:58:48;;;;;;;9.88;7.90;;;;;;;31.21;21.31;101444.44;5093869;28;20055;-56
2022/04/29 09:01:16;;;;;;;9.20;7.25;;;;;;;31.51;20.83;101443.59;5090389;28;20059;-53
2022/04/29 09:03:44;;;;;;;;;;;;;;;30.40;21.40;101441.41;5091260;28;20056;-57
2022/04/29 09:06:12;;;;;;;8.20;7.35;;;;;;;30.92;21.49;101441.19;5090274;28;19920;-56
2022/04/29 09:08:40;;;;;;;8.60;7.50;;;;;;;30.93;21.22;101439.91;5090231;28;20056;-57
2022/04/29 09:11:09;;;;;;;7.63;6.70;;;;;;;30.51;21.74;101439.19;5087330;28;20044;-56
2022/04/29 09:13:38;;;;;;;8.90;6.75;;;;;;;29.99;22.81;101445.91;5088727;28;20048;-57
2022/04/29 09:16:10;;;;;;;;;;;;;;;29.16;22.78;101442.84;5090531;28;20055;-56
2022/04/29 09:18:39;;;;;;;10.38;7.88;;;;;;;28.59;23.69;101449.69;5091023;28;19934;-56
2022/04/29 09:21:08;;;;;;;8.82;6.53;;;;;;;27.94;24.95;101449.81;5091349;28;20044;-56
2022/04/29 09:23:37;;;;;;;9.10;7.25;;;;;;;27.05;25.96;101444.81;5089703;28;20063;-56
2022/04/29 09:26:06;;;;;;;;;;;;;;;26.48;26.55;101444.53;5089482;28;20055;-54
2022/04/29 09:28:34;;;;;;;;;;;;;;;25.74;27.89;101446.47;5107195;28;20382;-55
2022/04/29 09:31:01;;;;;;;;;;;;;;;25.22;28.47;101449.28;5089897;28;19931;-51
2022/04/29 09:33:30;;;;;;;;;;;;;;;24.61;29.36;101447.72;5090844;28;19920;-55
2022/04/29 09:35:57;;;;;;;;;;;;;;;23.90;30.43;101440.59;5095436;28;20403;-54
2022/04/29 09:41:09;;;;;;;;;;;;;;;23.01;31.67;101445.50;5096257;28;19920;-51
2022/04/29 09:43:37;;;;;;;;;;;;;;;22.39;33.20;101441.78;5094383;28;20381;-55
2022/04/29 09:46:17;;;;;;;;;;;;;;;22.07;33.51;101439.81;5104098;28;19943;-55
2022/04/29 09:48:56;;;;;;;;;;;;;;;21.91;34.00;101435.38;5092112;28;19927;-55
2022/04/29 09:51:37;;;;;;;;;;;;;;;21.82;34.14;101441.25;5094403;28;20285;-56
2022/04/29 09:54:08;;;;;;;;;;;;;;;21.82;34.67;101441.25;5090578;28;19978;-54
2022/04/29 09:56:35;;;;;;;;;;;;;;;21.80;34.26;101433.09;5074772;28;19920;-52
2022/04/29 09:59:03;;;;;;;;;;;;;;;22.08;33.63;101435.78;5094018;28;19924;-55
2022/04/29 10:01:30;;;;;;;;;;;;;;;22.19;33.34;101438.84;5093942;28;20019;-55
2022/04/29 10:03:59;;;;;;;;;;;;;;;22.33;32.75;101434.75;5100490;28;20298;-56
2022/04/29 10:06:26;;;;;;;;;;;;;;;22.89;32.74;101439.97;5093884;28;20260;-56
2022/04/29 10:08:53;;;;;;;;;;;;;;;23.41;32.12;101437.72;5092043;28;20280;-56
2022/04/29 10:11:22;;;;;;;;;;;;;;;23.70;31.81;101430.47;5090922;28;19928;-54
2022/04/29 10:13:50;;;;;;;;;;;;;;;24.22;31.47;101426.03;5092462;28;19920;-54
2022/04/29 10:16:18;;;;;;;;;;;;;;;24.11;29.98;101428.72;5096600;28;20269;-54
2022/04/29 10:21:38;;;;;;;;;;;;;;;23.94;30.88;101434.13;5103761;28;19920;-55
2022/04/29 10:24:05;;;;;;;;;;;;;;;23.50;30.98;101441.13;5086919;28;19920;-55
2022/04/29 10:26:32;;;;;;;;;;;;;;;23.27;31.46;101446.81;5091279;28;19920;-52
2022/04/29 10:29:00;;;;;;;;;;;;;;;23.02;31.58;101438.63;5091953;28;19928;-54
2022/04/29 10:31:28;;;;;;;;;;;;;;;22.77;32.38;101440.13;5090014;28;19950;-53
2022/04/29 10:34:24;;;;;;;;;;;;;;;22.48;32.90;101436.69;5091074;28;19928;-52
2022/04/29 10:36:52;;;;;;;;;;;;;;;22.42;33.07;101441.00;5090358;28;19931;-50
2022/04/29 10:39:21;;;;;;;;;;;;;;;22.32;33.35;101438.75;5092570;28;20301;-56
2022/04/29 10:41:58;;;;;;;;;;;;;;;22.35;33.18;101443.72;5091160;28;19920;-55
2022/04/29 10:44:25;;;;;;;;;;;;;;;22.47;33.88;101446.41;5088394;28;20265;-53
2022/04/29 10:46:52;;;;;;;;;;;;;;;22.53;33.29;101433.53;5090116;28;19920;-55
2022/04/29 10:49:26;;;;;;;;;;;;;;;22.81;33.32;101436.16;5090736;28;19939;-55
2022/04/29 10:51:54;;;;;;;;;;;;;;;23.16;32.31;101431.56;5090687;28;19928;-56
2022/04/29 10:54:40;;;;;;;;;;;;;;;23.39;31.89;101428.72;5089337;28;19924;-56
2022/04/29 10:57:12;;;;;;;;;;;;;;;24.10;30.38;101429.09;5093521;28;19920;-56
2022/04/29 10:59:52;;;;;;;;;;;;;;;24.77;30.82;101430.41;5102853;28;20388;-56
2022/04/29 11:02:26;;;;;;;;;;;;;;;25.02;29.86;101422.97;5090571;28;19920;-56
2022/04/29 11:04:54;;;;;;;;;;;;;;;25.47;29.08;101423.00;5094451;28;20261;-57
2022/04/29 11:07:36;;;;;;;;;;;;;;;25.71;29.15;101427.31;5092010;28;19924;-56
2022/04/29 11:10:05;;;;;;;;;;;;;;;25.90;28.45;101431.97;5089731;28;19928;-50
2022/04/29 11:12:32;;;;;;;;;;;;;;;25.77;27.55;101428.59;5093329;28;19920;-55
2022/04/29 11:15:06;;;;;;;;;;;;;;;25.40;28.09;101423.78;5097741;28;19920;-52
2022/04/29 11:17:35;;;;;;;;;;;;;;;25.27;28.59;101423.25;5101417;28;19927;-54
2022/04/29 11:20:13;;;;;;;;;;;;;;;25.36;28.46;101422.94;5092531;28;19928;-56
2022/04/29 11:25:25;;;;;;;;;;;;;;;25.97;28.36;101423.44;5092984;28;19932;-55
2022/04/29 11:27:52;;;;;;;;;;;;;;;26.33;27.70;101418.78;5089845;28;20304;-54
2022/04/29 11:30:20;;;;;;;;;;;;;;;26.20;27.07;101428.88;5092605;28;19927;-53
2022/04/29 11:32:46;;;;;;;;;;;;;;;26.50;27.01;101430.66;5086974;28;19920;-51
2022/04/29 11:35:13;;;;;;;;;;;;;;;26.82;26.63;101422.25;5093042;28;19924;-52
2022/04/29 11:37:42;;;;;;;;;;;;;;;27.17;26.56;101422.75;5091133;28;20001;-52
2022/04/29 11:40:12;;;;;;;;;;;;;;;27.32;26.41;101419.53;5096065;28;19920;-50
2022/04/29 11:42:49;;;;;;;;;;;;;;;27.13;26.53;101419.88;5089875;28;19927;-56
2022/04/29 11:45:16;;;;;;;;;;;;;;;27.42;27.03;101417.09;5093057;28;19920;-56
2022/04/29 11:47:43;;;;;;;;;;;;;;;27.94;26.16;101412.56;5090574;28;20399;-55
2022/04/29 11:50:10;;;;;;;;;;;;;;;27.99;25.33;101417.09;5092148;28;20288;-55
2022/04/29 11:52:39;;;;;;;;;;;;;;;27.36;26.30;101413.81;5092766;28;19920;-55
2022/04/29 11:55:08;;;;;;;;;;;;;;;27.36;26.11;101408.06;5091918;28;19927;-56
2022/04/29 11:57:35;;;;;;;;;;;;;;;27.17;26.35;101412.13;5091252;28;19935;-56
2022/04/29 12:00:05;;;;;;;;;;;;;;;27.03;26.67;101407.22;5090981;28;19920;-55
2022/04/29 12:02:32;;;;;;;;;;;;;;;27.17;26.66;101405.59;5089297;28;19923;-56
2022/04/29 12:05:00;;;;;;;;;;;;;;;27.39;26.59;101395.84;5094217;28;20364;-56
2022/04/29 12:07:28;;;;;;;;;;;;;;;27.42;26.38;101399.91;5091978;28;19920;-54